sensor_id;sensor_type;location;lat;lon;timestamp;temperature;humidity
25352;DHT22;13304;48.464;8.712;2022-12-07T00:01:19;7.40;86.60
25352;DHT22;13304;48.464;8.712;2022-12-07T00:03:45;7.40;86.60
25352;DHT22;13304;48.464;8.712;2022-12-07T00:06:12;7.40;86.60
25352;DHT22;13304;48.464;8.712;2022-12-07T00:08:38;7.40;86.60
25352;DHT22;13304;48.464;8.712;2022-12-07T00:11:04;7.40;86.50
25352;DHT22;13304;48.464;8.712;2022-12-07T00:13:31;7.40;86.40
25352;DHT22;13304;48.464;8.712;2022-12-07T00:16:01;7.40;86.40
25352;DHT22;13304;48.464;8.712;2022-12-07T00:18:27;7.40;86.10
25352;DHT22;13304;48.464;8.712;2022-12-07T00:20:53;7.40;86.10
25352;DHT22;13304;48.464;8.712;2022-12-07T00:23:18;7.40;86.10
25352;DHT22;13304;48.464;8.712;2022-12-07T00:25:44;7.30;86.10
25352;DHT22;13304;48.464;8.712;2022-12-07T00:28:09;7.40;86.20
25352;DHT22;13304;48.464;8.712;2022-12-07T00:30:36;7.30;86.10
25352;DHT22;13304;48.464;8.712;2022-12-07T00:33:01;7.30;86.20
25352;DHT22;13304;48.464;8.712;2022-12-07T00:35:27;7.30;86.20
25352;DHT22;13304;48.464;8.712;2022-12-07T00:37:52;7.30;86.20
25352;DHT22;13304;48.464;8.712;2022-12-07T00:40:19;7.30;86.30
25352;DHT22;13304;48.464;8.712;2022-12-07T00:42:44;7.30;86.30
25352;DHT22;13304;48.464;8.712;2022-12-07T00:45:10;7.30;86.30
25352;DHT22;13304;48.464;8.712;2022-12-07T00:47:35;7.30;86.40
25352;DHT22;13304;48.464;8.712;2022-12-07T00:50:01;7.30;86.50
25352;DHT22;13304;48.464;8.712;2022-12-07T00:52:27;7.30;86.40
25352;DHT22;13304;48.464;8.712;2022-12-07T00:54:52;7.30;86.40
25352;DHT22;13304;48.464;8.712;2022-12-07T00:57:18;7.30;86.40
25352;DHT22;13304;48.464;8.712;2022-12-07T00:59:43;7.30;86.40
25352;DHT22;13304;48.464;8.712;2022-12-07T01:02:09;7.30;86.40
25352;DHT22;13304;48.464;8.712;2022-12-07T01:04:35;7.30;86.40
25352;DHT22;13304;48.464;8.712;2022-12-07T01:07:00;7.30;86.40
25352;DHT22;13304;48.464;8.712;2022-12-07T01:09:26;7.30;86.40
25352;DHT22;13304;48.464;8.712;2022-12-07T01:11:51;7.30;86.20
25352;DHT22;13304;48.464;8.712;2022-12-07T01:14:17;7.30;86.10
25352;DHT22;13304;48.464;8.712;2022-12-07T01:16:42;7.30;86.20
25352;DHT22;13304;48.464;8.712;2022-12-07T01:19:08;7.30;86.30
25352;DHT22;13304;48.464;8.712;2022-12-07T01:21:34;7.30;86.30
25352;DHT22;13304;48.464;8.712;2022-12-07T01:24:01;7.30;86.40
25352;DHT22;13304;48.464;8.712;2022-12-07T01:26:27;7.30;86.30
25352;DHT22;13304;48.464;8.712;2022-12-07T01:28:53;7.20;86.10
25352;DHT22;13304;48.464;8.712;2022-12-07T01:31:21;7.20;86.10
25352;DHT22;13304;48.464;8.712;2022-12-07T01:33:48;7.20;85.90
25352;DHT22;13304;48.464;8.712;2022-12-07T01:38:39;7.20;85.90
25352;DHT22;13304;48.464;8.712;2022-12-07T01:41:05;7.20;86.00
25352;DHT22;13304;48.464;8.712;2022-12-07T01:43:32;7.20;86.10
25352;DHT22;13304;48.464;8.712;2022-12-07T01:45:58;7.10;86.10
25352;DHT22;13304;48.464;8.712;2022-12-07T01:48:34;7.10;86.00
25352;DHT22;13304;48.464;8.712;2022-12-07T01:51:02;7.10;86.10
25352;DHT22;13304;48.464;8.712;2022-12-07T01:53:28;7.10;86.20
25352;DHT22;13304;48.464;8.712;2022-12-07T01:55:55;7.10;86.40
25352;DHT22;13304;48.464;8.712;2022-12-07T01:58:21;7.10;86.40
25352;DHT22;13304;48.464;8.712;2022-12-07T02:00:47;7.10;86.50
25352;DHT22;13304;48.464;8.712;2022-12-07T02:03:18;7.10;86.60
25352;DHT22;13304;48.464;8.712;2022-12-07T02:05:45;7.10;86.60
25352;DHT22;13304;48.464;8.712;2022-12-07T02:08:11;7.10;86.70
25352;DHT22;13304;48.464;8.712;2022-12-07T02:10:38;7.10;86.60
25352;DHT22;13304;48.464;8.712;2022-12-07T02:13:11;7.10;86.60
25352;DHT22;13304;48.464;8.712;2022-12-07T02:18:10;7.10;86.60
25352;DHT22;13304;48.464;8.712;2022-12-07T02:20:42;7.10;86.70
25352;DHT22;13304;48.464;8.712;2022-12-07T02:28:30;7.10;86.60
25352;DHT22;13304;48.464;8.712;2022-12-07T02:30:58;7.20;86.70
25352;DHT22;13304;48.464;8.712;2022-12-07T02:33:28;7.10;86.70
25352;DHT22;13304;48.464;8.712;2022-12-07T02:38:28;7.20;86.70
25352;DHT22;13304;48.464;8.712;2022-12-07T02:41:04;7.10;86.60
25352;DHT22;13304;48.464;8.712;2022-12-07T02:43:34;7.10;86.60
25352;DHT22;13304;48.464;8.712;2022-12-07T02:46:02;7.10;86.60
25352;DHT22;13304;48.464;8.712;2022-12-07T02:48:29;7.10;86.60
25352;DHT22;13304;48.464;8.712;2022-12-07T02:50:56;7.10;86.60
25352;DHT22;13304;48.464;8.712;2022-12-07T02:53:32;7.10;86.50
25352;DHT22;13304;48.464;8.712;2022-12-07T02:55:58;7.10;86.50
25352;DHT22;13304;48.464;8.712;2022-12-07T03:01:05;7.10;86.30
25352;DHT22;13304;48.464;8.712;2022-12-07T03:03:34;7.10;86.30
25352;DHT22;13304;48.464;8.712;2022-12-07T03:08:41;7.00;86.20
25352;DHT22;13304;48.464;8.712;2022-12-07T03:11:08;7.00;86.30
25352;DHT22;13304;48.464;8.712;2022-12-07T03:13:42;7.00;86.10
25352;DHT22;13304;48.464;8.712;2022-12-07T03:16:46;7.00;86.10
25352;DHT22;13304;48.464;8.712;2022-12-07T03:19:03;7.00;86.10
25352;DHT22;13304;48.464;8.712;2022-12-07T03:21:32;6.90;85.90
25352;DHT22;13304;48.464;8.712;2022-12-07T03:24:00;6.90;85.90
25352;DHT22;13304;48.464;8.712;2022-12-07T03:26:34;6.90;86.00
25352;DHT22;13304;48.464;8.712;2022-12-07T03:29:01;6.90;86.10
25352;DHT22;13304;48.464;8.712;2022-12-07T03:31:31;6.80;86.10
25352;DHT22;13304;48.464;8.712;2022-12-07T03:34:08;6.80;86.20
25352;DHT22;13304;48.464;8.712;2022-12-07T03:39:31;6.80;86.40
25352;DHT22;13304;48.464;8.712;2022-12-07T03:41:59;6.80;86.40
25352;DHT22;13304;48.464;8.712;2022-12-07T03:44:25;6.80;86.50
25352;DHT22;13304;48.464;8.712;2022-12-07T03:47:54;6.80;86.50
25352;DHT22;13304;48.464;8.712;2022-12-07T03:52:30;6.80;86.30
25352;DHT22;13304;48.464;8.712;2022-12-07T03:55:04;6.80;86.30
25352;DHT22;13304;48.464;8.712;2022-12-07T03:57:31;6.80;86.30
25352;DHT22;13304;48.464;8.712;2022-12-07T03:59:58;6.70;86.20
25352;DHT22;13304;48.464;8.712;2022-12-07T04:02:26;6.70;86.20
25352;DHT22;13304;48.464;8.712;2022-12-07T04:04:52;6.70;86.30
25352;DHT22;13304;48.464;8.712;2022-12-07T04:07:18;6.70;86.40
25352;DHT22;13304;48.464;8.712;2022-12-07T04:09:43;6.70;86.40
25352;DHT22;13304;48.464;8.712;2022-12-07T04:12:09;6.70;86.50
25352;DHT22;13304;48.464;8.712;2022-12-07T04:14:35;6.70;86.50
25352;DHT22;13304;48.464;8.712;2022-12-07T04:17:00;6.70;86.50
25352;DHT22;13304;48.464;8.712;2022-12-07T04:19:27;6.70;86.40
25352;DHT22;13304;48.464;8.712;2022-12-07T04:21:53;6.70;86.40
25352;DHT22;13304;48.464;8.712;2022-12-07T04:24:19;6.70;86.30
25352;DHT22;13304;48.464;8.712;2022-12-07T04:26:45;6.70;86.30
25352;DHT22;13304;48.464;8.712;2022-12-07T04:29:10;6.70;86.30
25352;DHT22;13304;48.464;8.712;2022-12-07T04:31:36;6.60;86.30
25352;DHT22;13304;48.464;8.712;2022-12-07T04:34:02;6.70;86.50
25352;DHT22;13304;48.464;8.712;2022-12-07T04:36:27;6.70;86.60
25352;DHT22;13304;48.464;8.712;2022-12-07T04:38:53;6.60;86.60
25352;DHT22;13304;48.464;8.712;2022-12-07T04:41:20;6.60;86.70
25352;DHT22;13304;48.464;8.712;2022-12-07T04:44:02;6.70;86.80
25352;DHT22;13304;48.464;8.712;2022-12-07T04:46:28;6.70;86.80
25352;DHT22;13304;48.464;8.712;2022-12-07T04:48:55;6.60;86.70
25352;DHT22;13304;48.464;8.712;2022-12-07T04:51:22;6.70;86.70
25352;DHT22;13304;48.464;8.712;2022-12-07T04:53:48;6.70;86.70
25352;DHT22;13304;48.464;8.712;2022-12-07T04:56:14;6.70;86.70
25352;DHT22;13304;48.464;8.712;2022-12-07T04:58:40;6.60;86.60
25352;DHT22;13304;48.464;8.712;2022-12-07T05:01:06;6.60;87.10
25352;DHT22;13304;48.464;8.712;2022-12-07T05:03:32;6.60;86.30
25352;DHT22;13304;48.464;8.712;2022-12-07T05:05:57;6.60;86.30
25352;DHT22;13304;48.464;8.712;2022-12-07T05:08:23;6.60;86.30
25352;DHT22;13304;48.464;8.712;2022-12-07T05:10:49;6.60;86.40
25352;DHT22;13304;48.464;8.712;2022-12-07T05:13:15;6.60;86.30
25352;DHT22;13304;48.464;8.712;2022-12-07T05:15:40;6.50;86.20
25352;DHT22;13304;48.464;8.712;2022-12-07T05:18:07;6.50;86.10
25352;DHT22;13304;48.464;8.712;2022-12-07T05:20:34;6.50;85.90
25352;DHT22;13304;48.464;8.712;2022-12-07T05:22:59;6.40;85.70
25352;DHT22;13304;48.464;8.712;2022-12-07T05:25:25;6.40;85.60
25352;DHT22;13304;48.464;8.712;2022-12-07T05:27:51;6.40;85.60
25352;DHT22;13304;48.464;8.712;2022-12-07T05:30:16;6.30;85.50
25352;DHT22;13304;48.464;8.712;2022-12-07T05:32:42;6.30;85.50
25352;DHT22;13304;48.464;8.712;2022-12-07T05:35:07;6.30;85.40
25352;DHT22;13304;48.464;8.712;2022-12-07T05:37:33;6.20;85.40
25352;DHT22;13304;48.464;8.712;2022-12-07T05:39:59;6.20;85.50
25352;DHT22;13304;48.464;8.712;2022-12-07T05:42:24;6.10;85.60
25352;DHT22;13304;48.464;8.712;2022-12-07T05:44:50;6.10;85.50
25352;DHT22;13304;48.464;8.712;2022-12-07T05:47:16;6.00;85.50
25352;DHT22;13304;48.464;8.712;2022-12-07T05:49:42;6.00;85.50
25352;DHT22;13304;48.464;8.712;2022-12-07T05:52:07;6.00;85.50
25352;DHT22;13304;48.464;8.712;2022-12-07T05:54:33;5.90;85.50
25352;DHT22;13304;48.464;8.712;2022-12-07T05:56:59;5.90;85.50
25352;DHT22;13304;48.464;8.712;2022-12-07T05:59:24;5.90;85.60
25352;DHT22;13304;48.464;8.712;2022-12-07T06:02:10;5.90;85.50
25352;DHT22;13304;48.464;8.712;2022-12-07T06:04:37;5.80;85.50
25352;DHT22;13304;48.464;8.712;2022-12-07T06:07:04;5.80;85.50
25352;DHT22;13304;48.464;8.712;2022-12-07T06:09:29;5.80;85.60
25352;DHT22;13304;48.464;8.712;2022-12-07T06:11:55;5.70;85.40
25352;DHT22;13304;48.464;8.712;2022-12-07T06:14:40;5.70;85.40
25352;DHT22;13304;48.464;8.712;2022-12-07T06:17:06;5.70;85.40
25352;DHT22;13304;48.464;8.712;2022-12-07T06:19:31;5.60;85.30
25352;DHT22;13304;48.464;8.712;2022-12-07T06:21:57;5.60;85.50
25352;DHT22;13304;48.464;8.712;2022-12-07T06:24:23;5.60;85.60
25352;DHT22;13304;48.464;8.712;2022-12-07T06:26:49;5.50;85.60
25352;DHT22;13304;48.464;8.712;2022-12-07T06:29:16;5.50;85.70
25352;DHT22;13304;48.464;8.712;2022-12-07T06:31:42;5.50;85.80
25352;DHT22;13304;48.464;8.712;2022-12-07T06:34:11;5.50;85.90
25352;DHT22;13304;48.464;8.712;2022-12-07T06:36:37;5.50;86.10
25352;DHT22;13304;48.464;8.712;2022-12-07T06:39:03;5.50;86.10
25352;DHT22;13304;48.464;8.712;2022-12-07T06:41:29;5.50;86.20
25352;DHT22;13304;48.464;8.712;2022-12-07T06:43:54;5.50;86.30
25352;DHT22;13304;48.464;8.712;2022-12-07T06:46:20;5.50;86.20
25352;DHT22;13304;48.464;8.712;2022-12-07T06:48:45;5.50;86.30
25352;DHT22;13304;48.464;8.712;2022-12-07T06:51:11;5.50;86.30
25352;DHT22;13304;48.464;8.712;2022-12-07T06:53:37;5.50;86.30
25352;DHT22;13304;48.464;8.712;2022-12-07T06:56:03;5.50;86.30
25352;DHT22;13304;48.464;8.712;2022-12-07T06:58:30;5.50;86.40
25352;DHT22;13304;48.464;8.712;2022-12-07T07:00:55;5.50;86.50
25352;DHT22;13304;48.464;8.712;2022-12-07T07:03:21;5.50;86.50
25352;DHT22;13304;48.464;8.712;2022-12-07T07:05:47;5.50;86.60
25352;DHT22;13304;48.464;8.712;2022-12-07T07:08:13;5.60;86.80
25352;DHT22;13304;48.464;8.712;2022-12-07T07:10:39;5.60;86.80
25352;DHT22;13304;48.464;8.712;2022-12-07T07:13:04;5.60;86.90
25352;DHT22;13304;48.464;8.712;2022-12-07T07:15:31;5.60;86.90
25352;DHT22;13304;48.464;8.712;2022-12-07T07:17:57;5.60;87.00
25352;DHT22;13304;48.464;8.712;2022-12-07T07:20:22;5.60;86.90
25352;DHT22;13304;48.464;8.712;2022-12-07T07:22:48;5.70;87.00
25352;DHT22;13304;48.464;8.712;2022-12-07T07:25:14;5.70;87.00
25352;DHT22;13304;48.464;8.712;2022-12-07T07:27:40;5.70;86.90
25352;DHT22;13304;48.464;8.712;2022-12-07T07:30:05;5.70;86.90
25352;DHT22;13304;48.464;8.712;2022-12-07T07:32:31;5.70;86.90
25352;DHT22;13304;48.464;8.712;2022-12-07T07:34:57;5.70;86.90
25352;DHT22;13304;48.464;8.712;2022-12-07T07:37:22;5.80;86.90
25352;DHT22;13304;48.464;8.712;2022-12-07T07:39:48;5.80;86.80
25352;DHT22;13304;48.464;8.712;2022-12-07T07:42:14;5.80;86.80
25352;DHT22;13304;48.464;8.712;2022-12-07T07:44:39;5.80;86.90
25352;DHT22;13304;48.464;8.712;2022-12-07T07:47:05;5.80;86.90
25352;DHT22;13304;48.464;8.712;2022-12-07T07:49:31;5.80;86.90
25352;DHT22;13304;48.464;8.712;2022-12-07T07:51:56;5.80;86.90
25352;DHT22;13304;48.464;8.712;2022-12-07T07:54:22;5.80;86.90
25352;DHT22;13304;48.464;8.712;2022-12-07T07:56:47;5.80;86.90
25352;DHT22;13304;48.464;8.712;2022-12-07T07:59:13;5.80;86.90
25352;DHT22;13304;48.464;8.712;2022-12-07T08:01:39;5.90;86.80
25352;DHT22;13304;48.464;8.712;2022-12-07T08:04:05;5.80;86.70
25352;DHT22;13304;48.464;8.712;2022-12-07T08:06:30;5.90;86.80
25352;DHT22;13304;48.464;8.712;2022-12-07T08:08:56;5.90;86.70
25352;DHT22;13304;48.464;8.712;2022-12-07T08:11:23;5.90;86.80
25352;DHT22;13304;48.464;8.712;2022-12-07T08:13:49;5.90;86.80
25352;DHT22;13304;48.464;8.712;2022-12-07T08:16:15;5.90;86.80
25352;DHT22;13304;48.464;8.712;2022-12-07T08:18:40;5.90;86.70
25352;DHT22;13304;48.464;8.712;2022-12-07T08:21:07;5.90;86.80
25352;DHT22;13304;48.464;8.712;2022-12-07T08:23:33;5.90;86.80
25352;DHT22;13304;48.464;8.712;2022-12-07T08:26:09;5.90;86.70
25352;DHT22;13304;48.464;8.712;2022-12-07T08:28:35;5.90;86.70
25352;DHT22;13304;48.464;8.712;2022-12-07T08:31:02;5.90;86.60
25352;DHT22;13304;48.464;8.712;2022-12-07T08:33:28;5.90;86.70
25352;DHT22;13304;48.464;8.712;2022-12-07T08:35:53;5.90;86.80
25352;DHT22;13304;48.464;8.712;2022-12-07T08:38:19;5.90;86.80
25352;DHT22;13304;48.464;8.712;2022-12-07T08:40:45;5.90;86.80
25352;DHT22;13304;48.464;8.712;2022-12-07T08:43:18;6.00;86.60
25352;DHT22;13304;48.464;8.712;2022-12-07T08:45:43;6.00;86.40
25352;DHT22;13304;48.464;8.712;2022-12-07T08:48:10;6.00;86.70
25352;DHT22;13304;48.464;8.712;2022-12-07T08:50:37;6.00;86.60
25352;DHT22;13304;48.464;8.712;2022-12-07T08:53:03;6.00;86.70
25352;DHT22;13304;48.464;8.712;2022-12-07T08:55:29;6.00;86.80
25352;DHT22;13304;48.464;8.712;2022-12-07T08:57:57;6.00;86.60
25352;DHT22;13304;48.464;8.712;2022-12-07T09:00:22;6.00;86.40
25352;DHT22;13304;48.464;8.712;2022-12-07T09:02:48;6.00;86.50
25352;DHT22;13304;48.464;8.712;2022-12-07T09:05:14;6.00;86.60
25352;DHT22;13304;48.464;8.712;2022-12-07T09:07:46;6.00;86.70
25352;DHT22;13304;48.464;8.712;2022-12-07T09:10:13;6.10;86.90
25352;DHT22;13304;48.464;8.712;2022-12-07T09:12:38;6.10;86.90
25352;DHT22;13304;48.464;8.712;2022-12-07T09:15:04;6.10;87.60
25352;DHT22;13304;48.464;8.712;2022-12-07T09:17:31;6.10;86.80
25352;DHT22;13304;48.464;8.712;2022-12-07T09:19:57;6.10;86.80
25352;DHT22;13304;48.464;8.712;2022-12-07T09:22:22;6.20;87.00
25352;DHT22;13304;48.464;8.712;2022-12-07T09:24:48;6.20;87.10
25352;DHT22;13304;48.464;8.712;2022-12-07T09:27:14;6.20;87.10
25352;DHT22;13304;48.464;8.712;2022-12-07T09:29:39;6.20;87.20
25352;DHT22;13304;48.464;8.712;2022-12-07T09:32:05;6.20;86.80
25352;DHT22;13304;48.464;8.712;2022-12-07T09:34:31;6.30;86.90
25352;DHT22;13304;48.464;8.712;2022-12-07T09:36:57;6.30;86.50
25352;DHT22;13304;48.464;8.712;2022-12-07T09:39:23;6.30;86.10
25352;DHT22;13304;48.464;8.712;2022-12-07T09:41:48;6.30;86.60
25352;DHT22;13304;48.464;8.712;2022-12-07T09:44:16;6.40;85.90
25352;DHT22;13304;48.464;8.712;2022-12-07T09:46:43;6.40;86.10
25352;DHT22;13304;48.464;8.712;2022-12-07T09:49:20;6.40;85.80
25352;DHT22;13304;48.464;8.712;2022-12-07T09:51:46;6.40;85.90
25352;DHT22;13304;48.464;8.712;2022-12-07T09:54:13;6.40;84.50
25352;DHT22;13304;48.464;8.712;2022-12-07T09:56:39;6.40;84.90
25352;DHT22;13304;48.464;8.712;2022-12-07T09:59:04;6.50;85.40
25352;DHT22;13304;48.464;8.712;2022-12-07T10:01:31;6.50;85.40
25352;DHT22;13304;48.464;8.712;2022-12-07T10:04:46;6.50;85.40
25352;DHT22;13304;48.464;8.712;2022-12-07T10:06:46;6.50;85.50
25352;DHT22;13304;48.464;8.712;2022-12-07T10:09:14;6.60;85.80
25352;DHT22;13304;48.464;8.712;2022-12-07T10:14:23;6.60;85.90
25352;DHT22;13304;48.464;8.712;2022-12-07T10:16:51;6.70;85.30
25352;DHT22;13304;48.464;8.712;2022-12-07T10:19:18;6.70;85.70
25352;DHT22;13304;48.464;8.712;2022-12-07T10:21:59;6.70;84.90
25352;DHT22;13304;48.464;8.712;2022-12-07T10:24:24;6.80;84.30
25352;DHT22;13304;48.464;8.712;2022-12-07T10:26:51;6.80;85.80
25352;DHT22;13304;48.464;8.712;2022-12-07T10:29:18;6.90;85.60
25352;DHT22;13304;48.464;8.712;2022-12-07T10:31:46;6.90;84.80
25352;DHT22;13304;48.464;8.712;2022-12-07T10:34:24;6.90;85.40
25352;DHT22;13304;48.464;8.712;2022-12-07T10:36:51;7.00;84.80
25352;DHT22;13304;48.464;8.712;2022-12-07T10:39:21;7.00;83.70
25352;DHT22;13304;48.464;8.712;2022-12-07T10:41:53;7.00;84.60
25352;DHT22;13304;48.464;8.712;2022-12-07T10:44:21;7.10;84.90
25352;DHT22;13304;48.464;8.712;2022-12-07T10:46:57;7.10;84.00
25352;DHT22;13304;48.464;8.712;2022-12-07T10:52:33;7.20;84.20
25352;DHT22;13304;48.464;8.712;2022-12-07T10:57:50;7.30;83.40
25352;DHT22;13304;48.464;8.712;2022-12-07T11:00:22;7.30;83.00
25352;DHT22;13304;48.464;8.712;2022-12-07T11:05:26;7.40;82.60
25352;DHT22;13304;48.464;8.712;2022-12-07T11:07:59;7.40;82.10
25352;DHT22;13304;48.464;8.712;2022-12-07T11:10:30;7.40;82.40
25352;DHT22;13304;48.464;8.712;2022-12-07T11:20:53;7.50;81.00
25352;DHT22;13304;48.464;8.712;2022-12-07T11:31:12;7.60;82.30
25352;DHT22;13304;48.464;8.712;2022-12-07T11:33:41;7.70;81.60
25352;DHT22;13304;48.464;8.712;2022-12-07T11:38:54;7.70;81.10
25352;DHT22;13304;48.464;8.712;2022-12-07T11:41:22;7.70;80.30
25352;DHT22;13304;48.464;8.712;2022-12-07T11:46:51;7.80;79.50
25352;DHT22;13304;48.464;8.712;2022-12-07T11:51:41;7.80;79.20
25352;DHT22;13304;48.464;8.712;2022-12-07T11:54:15;7.80;78.20
25352;DHT22;13304;48.464;8.712;2022-12-07T11:56:43;7.80;79.50
25352;DHT22;13304;48.464;8.712;2022-12-07T11:59:13;7.80;77.40
25352;DHT22;13304;48.464;8.712;2022-12-07T12:01:51;7.80;80.00
25352;DHT22;13304;48.464;8.712;2022-12-07T12:04:27;7.80;79.00
25352;DHT22;13304;48.464;8.712;2022-12-07T12:06:54;7.90;80.40
25352;DHT22;13304;48.464;8.712;2022-12-07T12:14:18;7.90;78.50
25352;DHT22;13304;48.464;8.712;2022-12-07T12:19:25;8.00;77.90
25352;DHT22;13304;48.464;8.712;2022-12-07T12:21:56;8.00;79.90
25352;DHT22;13304;48.464;8.712;2022-12-07T12:24:23;8.00;77.60
25352;DHT22;13304;48.464;8.712;2022-12-07T12:26:56;8.00;79.00
25352;DHT22;13304;48.464;8.712;2022-12-07T12:29:32;8.00;76.90
25352;DHT22;13304;48.464;8.712;2022-12-07T12:32:18;8.00;76.90
25352;DHT22;13304;48.464;8.712;2022-12-07T12:42:45;8.00;76.20
25352;DHT22;13304;48.464;8.712;2022-12-07T12:45:17;8.00;76.50
25352;DHT22;13304;48.464;8.712;2022-12-07T12:50:20;8.00;77.40
25352;DHT22;13304;48.464;8.712;2022-12-07T12:52:51;8.00;77.80
25352;DHT22;13304;48.464;8.712;2022-12-07T12:55:18;8.00;77.90
25352;DHT22;13304;48.464;8.712;2022-12-07T12:57:47;8.00;79.00
25352;DHT22;13304;48.464;8.712;2022-12-07T13:00:20;8.00;79.40
25352;DHT22;13304;48.464;8.712;2022-12-07T13:02:50;8.00;77.50
25352;DHT22;13304;48.464;8.712;2022-12-07T13:05:23;8.00;79.10
25352;DHT22;13304;48.464;8.712;2022-12-07T13:07:51;8.00;78.80
25352;DHT22;13304;48.464;8.712;2022-12-07T13:18:03;8.10;78.20
25352;DHT22;13304;48.464;8.712;2022-12-07T13:23:14;8.00;76.90
25352;DHT22;13304;48.464;8.712;2022-12-07T13:25:45;8.00;76.60
25352;DHT22;13304;48.464;8.712;2022-12-07T13:28:14;8.10;76.90
25352;DHT22;13304;48.464;8.712;2022-12-07T13:30:45;8.00;76.60
25352;DHT22;13304;48.464;8.712;2022-12-07T13:33:11;8.00;77.70
25352;DHT22;13304;48.464;8.712;2022-12-07T13:35:37;8.00;78.10
25352;DHT22;13304;48.464;8.712;2022-12-07T13:43:41;8.00;78.60
25352;DHT22;13304;48.464;8.712;2022-12-07T13:46:07;8.00;78.60
25352;DHT22;13304;48.464;8.712;2022-12-07T13:48:35;8.00;78.80
25352;DHT22;13304;48.464;8.712;2022-12-07T13:51:02;8.00;78.70
25352;DHT22;13304;48.464;8.712;2022-12-07T13:53:28;8.00;78.50
25352;DHT22;13304;48.464;8.712;2022-12-07T13:55:59;8.10;78.80
25352;DHT22;13304;48.464;8.712;2022-12-07T13:58:25;8.00;78.30
25352;DHT22;13304;48.464;8.712;2022-12-07T14:00:52;8.00;77.50
25352;DHT22;13304;48.464;8.712;2022-12-07T14:05:43;8.00;77.70
25352;DHT22;13304;48.464;8.712;2022-12-07T14:10:37;8.00;76.60
25352;DHT22;13304;48.464;8.712;2022-12-07T14:15:45;8.00;77.00
25352;DHT22;13304;48.464;8.712;2022-12-07T14:18:24;7.90;76.40
25352;DHT22;13304;48.464;8.712;2022-12-07T14:20:50;7.90;77.50
25352;DHT22;13304;48.464;8.712;2022-12-07T14:23:24;7.90;77.60
25352;DHT22;13304;48.464;8.712;2022-12-07T14:25:50;7.90;78.60
25352;DHT22;13304;48.464;8.712;2022-12-07T14:28:26;7.90;77.80
25352;DHT22;13304;48.464;8.712;2022-12-07T14:30:52;7.90;78.50
25352;DHT22;13304;48.464;8.712;2022-12-07T14:33:18;7.90;79.40
25352;DHT22;13304;48.464;8.712;2022-12-07T14:35:43;7.90;79.70
25352;DHT22;13304;48.464;8.712;2022-12-07T14:38:09;7.90;79.90
25352;DHT22;13304;48.464;8.712;2022-12-07T14:40:34;7.90;80.20
25352;DHT22;13304;48.464;8.712;2022-12-07T14:43:01;7.90;79.10
25352;DHT22;13304;48.464;8.712;2022-12-07T14:45:28;7.90;79.30
25352;DHT22;13304;48.464;8.712;2022-12-07T14:47:54;7.90;79.60
25352;DHT22;13304;48.464;8.712;2022-12-07T14:50:20;7.90;79.80
25352;DHT22;13304;48.464;8.712;2022-12-07T14:52:47;7.80;78.20
25352;DHT22;13304;48.464;8.712;2022-12-07T14:55:22;7.80;78.50
25352;DHT22;13304;48.464;8.712;2022-12-07T14:57:48;7.80;78.60
25352;DHT22;13304;48.464;8.712;2022-12-07T15:00:14;7.80;78.50
25352;DHT22;13304;48.464;8.712;2022-12-07T15:02:40;7.80;79.30
25352;DHT22;13304;48.464;8.712;2022-12-07T15:05:06;7.70;78.40
25352;DHT22;13304;48.464;8.712;2022-12-07T15:07:31;7.70;78.70
25352;DHT22;13304;48.464;8.712;2022-12-07T15:09:57;7.70;77.80
25352;DHT22;13304;48.464;8.712;2022-12-07T15:12:22;7.60;77.40
25352;DHT22;13304;48.464;8.712;2022-12-07T15:14:50;7.60;78.30
25352;DHT22;13304;48.464;8.712;2022-12-07T15:17:15;7.60;78.00
25352;DHT22;13304;48.464;8.712;2022-12-07T15:19:41;7.60;77.40
25352;DHT22;13304;48.464;8.712;2022-12-07T15:22:07;7.50;77.40
25352;DHT22;13304;48.464;8.712;2022-12-07T15:24:33;7.50;78.10
25352;DHT22;13304;48.464;8.712;2022-12-07T15:26:59;7.50;78.40
25352;DHT22;13304;48.464;8.712;2022-12-07T15:29:25;7.40;78.50
25352;DHT22;13304;48.464;8.712;2022-12-07T15:31:51;7.40;78.40
25352;DHT22;13304;48.464;8.712;2022-12-07T15:34:16;7.40;78.80
25352;DHT22;13304;48.464;8.712;2022-12-07T15:36:42;7.30;78.10
25352;DHT22;13304;48.464;8.712;2022-12-07T15:39:08;7.30;78.30
25352;DHT22;13304;48.464;8.712;2022-12-07T15:41:34;7.20;78.60
25352;DHT22;13304;48.464;8.712;2022-12-07T15:44:00;7.20;78.60
25352;DHT22;13304;48.464;8.712;2022-12-07T15:46:44;7.10;78.30
25352;DHT22;13304;48.464;8.712;2022-12-07T15:49:11;7.10;78.60
25352;DHT22;13304;48.464;8.712;2022-12-07T15:51:37;7.00;77.90
25352;DHT22;13304;48.464;8.712;2022-12-07T15:54:03;7.00;77.90
25352;DHT22;13304;48.464;8.712;2022-12-07T15:56:29;6.90;78.10
25352;DHT22;13304;48.464;8.712;2022-12-07T15:58:55;6.90;78.50
25352;DHT22;13304;48.464;8.712;2022-12-07T16:01:21;6.80;78.80
25352;DHT22;13304;48.464;8.712;2022-12-07T16:03:46;6.80;78.40
25352;DHT22;13304;48.464;8.712;2022-12-07T16:06:14;6.80;78.80
25352;DHT22;13304;48.464;8.712;2022-12-07T16:08:46;6.70;79.30
25352;DHT22;13304;48.464;8.712;2022-12-07T16:11:12;6.70;79.70
25352;DHT22;13304;48.464;8.712;2022-12-07T16:13:38;6.70;79.40
25352;DHT22;13304;48.464;8.712;2022-12-07T16:16:05;6.70;79.00
25352;DHT22;13304;48.464;8.712;2022-12-07T16:18:31;6.60;79.20
25352;DHT22;13304;48.464;8.712;2022-12-07T16:20:57;6.60;79.10
25352;DHT22;13304;48.464;8.712;2022-12-07T16:23:22;6.60;79.00
25352;DHT22;13304;48.464;8.712;2022-12-07T16:25:48;6.50;79.00
25352;DHT22;13304;48.464;8.712;2022-12-07T16:28:13;6.50;79.20
25352;DHT22;13304;48.464;8.712;2022-12-07T16:30:39;6.50;79.30
25352;DHT22;13304;48.464;8.712;2022-12-07T16:33:04;6.50;79.50
25352;DHT22;13304;48.464;8.712;2022-12-07T16:35:30;6.40;80.00
25352;DHT22;13304;48.464;8.712;2022-12-07T16:37:55;6.40;79.80
25352;DHT22;13304;48.464;8.712;2022-12-07T16:40:21;6.40;79.80
25352;DHT22;13304;48.464;8.712;2022-12-07T16:42:46;6.40;80.00
25352;DHT22;13304;48.464;8.712;2022-12-07T16:45:12;6.30;80.00
25352;DHT22;13304;48.464;8.712;2022-12-07T16:47:39;6.40;80.30
25352;DHT22;13304;48.464;8.712;2022-12-07T16:50:05;6.30;80.50
25352;DHT22;13304;48.464;8.712;2022-12-07T16:52:31;6.30;80.50
25352;DHT22;13304;48.464;8.712;2022-12-07T16:54:56;6.30;80.50
25352;DHT22;13304;48.464;8.712;2022-12-07T16:57:22;6.30;80.70
25352;DHT22;13304;48.464;8.712;2022-12-07T16:59:47;6.20;80.60
25352;DHT22;13304;48.464;8.712;2022-12-07T17:02:13;6.20;80.60
25352;DHT22;13304;48.464;8.712;2022-12-07T17:04:38;6.20;80.40
25352;DHT22;13304;48.464;8.712;2022-12-07T17:07:08;6.20;80.50
25352;DHT22;13304;48.464;8.712;2022-12-07T17:09:33;6.10;80.50
25352;DHT22;13304;48.464;8.712;2022-12-07T17:12:00;6.10;80.60
25352;DHT22;13304;48.464;8.712;2022-12-07T17:14:26;6.10;80.40
25352;DHT22;13304;48.464;8.712;2022-12-07T17:17:10;6.00;80.40
25352;DHT22;13304;48.464;8.712;2022-12-07T17:19:35;6.00;80.60
25352;DHT22;13304;48.464;8.712;2022-12-07T17:22:01;6.00;80.60
25352;DHT22;13304;48.464;8.712;2022-12-07T17:24:27;6.00;80.70
25352;DHT22;13304;48.464;8.712;2022-12-07T17:26:52;5.90;80.70